createdAt,value
2022-07-26T00:01:32.867Z,23.14
2022-07-26T00:04:01.343Z,23.22
2022-07-26T00:06:29.157Z,23.12
2022-07-26T00:08:56.485Z,23.06
2022-07-26T00:11:23.906Z,23.01
2022-07-26T00:13:51.331Z,22.95
2022-07-26T00:16:18.703Z,22.92
2022-07-26T00:18:47.599Z,22.87
2022-07-26T00:21:15.130Z,22.99
2022-07-26T00:23:42.419Z,22.92
2022-07-26T00:26:09.649Z,22.88
2022-07-26T00:28:36.991Z,22.90
2022-07-26T00:31:04.983Z,22.80
2022-07-26T00:33:32.475Z,22.74
2022-07-26T00:35:59.764Z,22.79
2022-07-26T00:38:27.065Z,22.99
2022-07-26T00:40:54.316Z,22.98
2022-07-26T00:43:21.573Z,22.95
2022-07-26T00:45:50.364Z,22.82
2022-07-26T00:48:19.760Z,22.69
2022-07-26T00:50:47.843Z,22.63
2022-07-26T00:53:15.410Z,22.69
2022-07-26T00:55:42.727Z,22.74
2022-07-26T00:58:09.984Z,22.82
2022-07-26T01:00:37.471Z,22.98
2022-07-26T01:03:05.363Z,23.07
2022-07-26T01:05:33.315Z,22.79
2022-07-26T01:08:00.708Z,22.60
2022-07-26T01:10:28.112Z,22.35
2022-07-26T01:12:55.387Z,22.00
2022-07-26T01:15:23.442Z,21.71
2022-07-26T01:17:50.667Z,21.74
2022-07-26T01:20:18.071Z,21.83
2022-07-26T01:22:45.392Z,22.18
2022-07-26T01:25:12.723Z,21.80
2022-07-26T01:27:40.379Z,21.66
2022-07-26T01:30:10.186Z,21.99
2022-07-26T01:32:37.734Z,21.81
2022-07-26T01:35:06.503Z,21.78
2022-07-26T01:37:33.850Z,21.64
2022-07-26T01:40:01.096Z,21.79
2022-07-26T01:42:28.385Z,21.57
2022-07-26T01:44:55.651Z,21.49
2022-07-26T01:47:23.175Z,21.68
2022-07-26T01:49:50.416Z,21.57
2022-07-26T01:52:18.813Z,21.40
2022-07-26T01:54:46.153Z,21.16
2022-07-26T01:57:13.377Z,21.28
2022-07-26T01:59:40.703Z,21.36
2022-07-26T02:02:08.065Z,21.42
2022-07-26T02:04:54.115Z,21.32
2022-07-26T02:07:24.064Z,21.30
2022-07-26T02:09:52.899Z,21.13
2022-07-26T02:12:20.267Z,21.02
2022-07-26T02:14:47.499Z,21.07
2022-07-26T02:17:14.874Z,21.19
2022-07-26T02:19:42.147Z,21.16
2022-07-26T02:22:09.402Z,21.21
2022-07-26T02:24:37.351Z,21.30
2022-07-26T02:27:05.309Z,21.28
2022-07-26T02:29:32.839Z,21.50
2022-07-26T02:32:00.538Z,21.31
2022-07-26T02:34:31.018Z,21.35
2022-07-26T02:37:01.306Z,21.58
2022-07-26T02:39:28.939Z,21.55
2022-07-26T04:04:53.104Z,21.48
2022-07-26T04:07:21.285Z,21.75
2022-07-26T04:09:48.731Z,21.88
2022-07-26T04:12:16.067Z,21.93
2022-07-26T04:14:43.274Z,21.91
2022-07-26T04:17:10.630Z,21.98
2022-07-26T04:19:39.743Z,22.30
2022-07-26T04:22:07.222Z,22.10
2022-07-26T04:24:34.508Z,21.96
2022-07-26T04:27:01.715Z,22.44
2022-07-26T04:29:28.912Z,22.21
2022-07-26T04:31:56.213Z,22.28
2022-07-26T04:34:23.419Z,22.48
2022-07-26T04:36:50.716Z,22.57
2022-07-26T04:39:24.408Z,22.59
2022-07-26T04:41:51.630Z,22.88
2022-07-26T04:44:18.924Z,23.25
2022-07-26T04:46:46.129Z,23.64
2022-07-26T04:49:14.017Z,24.17
2022-07-26T04:51:41.457Z,24.40
2022-07-26T04:54:09.060Z,24.41
2022-07-26T04:56:36.517Z,24.52
2022-07-26T04:59:03.816Z,24.56
2022-07-26T05:01:31.227Z,24.38
2022-07-26T05:03:58.536Z,24.51
2022-07-26T05:06:25.744Z,24.44
2022-07-26T05:08:53.035Z,24.32
2022-07-26T05:11:20.403Z,24.34
2022-07-26T05:13:48.623Z,24.73
2022-07-26T05:16:15.921Z,24.85
2022-07-26T05:18:45.558Z,25.05
2022-07-26T05:21:16.552Z,25.08
2022-07-26T05:23:43.759Z,25.26
2022-07-26T05:26:13.704Z,24.84
2022-07-26T05:28:41.463Z,24.60
2022-07-26T05:31:08.884Z,25.01
2022-07-26T05:33:36.241Z,25.35
2022-07-26T05:36:03.705Z,25.29
2022-07-26T05:38:30.918Z,25.41
2022-07-26T05:40:58.164Z,25.05
2022-07-26T05:43:27.571Z,25.62
2022-07-26T05:46:12.625Z,26.18
2022-07-26T05:48:40.609Z,26.28
2022-07-26T05:51:08.191Z,26.66
2022-07-26T05:53:35.551Z,26.23
2022-07-26T05:56:02.799Z,26.67
2022-07-26T05:58:30.119Z,26.80
2022-07-26T06:00:57.464Z,27.58
2022-07-26T06:03:25.951Z,27.02
2022-07-26T06:05:56.668Z,26.84
2022-07-26T06:08:26.319Z,27.08
2022-07-26T06:10:54.953Z,26.97
2022-07-26T06:13:22.763Z,27.28
2022-07-26T06:15:50.823Z,26.93
2022-07-26T06:18:18.200Z,26.64
2022-07-26T06:20:47.662Z,27.26
2022-07-26T06:23:15.446Z,27.71
2022-07-26T06:25:42.830Z,28.32
2022-07-26T06:28:11.836Z,28.22
2022-07-26T06:30:39.666Z,27.82
2022-07-26T06:33:07.890Z,27.86
2022-07-26T06:35:36.083Z,28.32
2022-07-26T06:38:03.881Z,28.68
2022-07-26T06:40:31.326Z,28.71
2022-07-26T06:43:03.992Z,28.83
2022-07-26T06:45:34.886Z,28.60
2022-07-26T06:48:02.208Z,28.67
2022-07-26T06:50:29.537Z,28.55
2022-07-26T06:52:56.904Z,28.58
2022-07-26T06:55:24.334Z,29.13
2022-07-26T06:57:51.599Z,29.42
2022-07-26T07:00:19.281Z,29.20
2022-07-26T07:02:46.784Z,28.40
2022-07-26T07:05:14.166Z,27.86
2022-07-26T07:07:42.190Z,28.36
2022-07-26T07:10:11.139Z,28.87
2022-07-26T07:12:40.642Z,29.26
2022-07-26T07:15:08.453Z,29.40
2022-07-26T07:17:35.710Z,29.65
2022-07-26T07:20:05.065Z,30.01
2022-07-26T07:22:33.225Z,30.68
2022-07-26T07:25:00.961Z,30.19
2022-07-26T07:27:30.447Z,30.05
2022-07-26T07:29:57.761Z,30.36
2022-07-26T07:32:25.068Z,30.53
2022-07-26T07:34:53.659Z,30.08
2022-07-26T07:37:21.346Z,30.29
2022-07-26T07:39:50.715Z,30.17
2022-07-26T07:42:19.672Z,30.83
2022-07-26T07:44:47.348Z,30.98
2022-07-26T07:47:14.956Z,31.30
2022-07-26T07:49:42.529Z,30.95
2022-07-26T07:52:09.839Z,31.16
2022-07-26T07:54:37.773Z,31.17
2022-07-26T07:57:05.212Z,30.73
2022-07-26T07:59:32.552Z,31.05
2022-07-26T08:02:04.466Z,30.58
2022-07-26T08:04:31.760Z,30.76
2022-07-26T08:06:59.785Z,30.75
2022-07-26T08:09:28.731Z,30.93
2022-07-26T08:11:56.406Z,31.37
2022-07-26T08:14:24.326Z,31.74
2022-07-26T08:16:52.135Z,31.51
2022-07-26T08:19:19.483Z,31.33
2022-07-26T08:21:49.815Z,31.85
2022-07-26T08:24:17.626Z,32.26
2022-07-26T08:26:46.476Z,32.87
2022-07-26T08:29:14.022Z,32.89
2022-07-26T08:31:41.487Z,33.22
2022-07-26T08:34:08.801Z,33.14
2022-07-26T08:36:36.023Z,32.35
2022-07-26T08:39:04.865Z,33.21
2022-07-26T08:41:32.357Z,32.77
2022-07-26T08:44:07.768Z,33.42
2022-07-26T08:46:37.581Z,33.11
2022-07-26T08:49:07.360Z,33.64
2022-07-26T08:51:39.668Z,34.65
2022-07-26T08:54:13.243Z,35.20
2022-07-26T08:56:52.993Z,35.67
2022-07-26T08:59:22.604Z,36.35
2022-07-26T09:02:00.126Z,36.59
2022-07-26T09:04:44.365Z,36.79
2022-07-26T09:07:22.276Z,35.86
2022-07-26T09:10:02.646Z,37.43
2022-07-26T09:12:31.141Z,38.64
2022-07-26T09:15:00.127Z,39.23
2022-07-26T09:17:42.815Z,40.85
2022-07-26T09:20:24.499Z,41.79
2022-07-26T09:22:57.280Z,39.28
2022-07-26T09:25:26.245Z,39.09
2022-07-26T09:27:56.908Z,39.76
2022-07-26T09:30:24.337Z,40.18
2022-07-26T09:33:06.627Z,41.05
2022-07-26T09:35:49.672Z,41.56
2022-07-26T09:38:19.744Z,42.51
2022-07-26T09:40:51.095Z,42.70
2022-07-26T09:43:23.931Z,42.68
2022-07-26T09:46:05.932Z,43.27
2022-07-26T09:51:41.460Z,43.20
2022-07-26T09:54:13.652Z,43.28
2022-07-26T09:56:48.447Z,43.12
2022-07-26T09:59:20.559Z,43.35
2022-07-26T10:01:53.014Z,41.81
2022-07-26T10:04:25.739Z,42.10
2022-07-26T10:06:54.530Z,41.83
2022-07-26T10:09:23.373Z,41.00
2022-07-26T10:12:00.241Z,41.27
2022-07-26T10:14:35.498Z,41.36
2022-07-26T10:17:32.384Z,41.28
2022-07-26T10:20:09.136Z,41.27
2022-07-26T10:22:49.058Z,40.00
2022-07-26T10:25:19.605Z,38.98
2022-07-26T10:27:55.818Z,39.22
2022-07-26T10:30:34.278Z,38.12
2022-07-26T10:33:10.816Z,38.19
2022-07-26T10:35:43.684Z,38.31
2022-07-26T10:38:22.680Z,38.95
2022-07-26T10:41:03.750Z,39.94
2022-07-26T10:43:41.544Z,40.00
2022-07-26T10:46:18.814Z,39.89
2022-07-26T10:49:09.544Z,40.42
2022-07-26T10:51:42.407Z,40.30
2022-07-26T10:54:13.129Z,40.17
2022-07-26T10:56:42.504Z,40.99
2022-07-26T10:59:20.309Z,40.14
2022-07-26T11:02:01.016Z,40.02
2022-07-26T11:04:31.900Z,41.14
2022-07-26T11:07:02.537Z,42.55
2022-07-26T11:09:36.204Z,43.59
2022-07-26T11:12:18.814Z,45.14
2022-07-26T11:14:48.648Z,45.07
2022-07-26T11:17:27.265Z,43.53
2022-07-26T11:19:56.024Z,44.26
2022-07-26T11:22:31.351Z,45.75
2022-07-26T11:24:58.772Z,46.92
2022-07-26T11:27:26.067Z,47.03
2022-07-26T11:29:53.417Z,48.50
2022-07-26T11:32:25.772Z,48.56
2022-07-26T11:35:04.730Z,48.03
2022-07-26T11:37:32.253Z,49.65
2022-07-26T11:40:02.160Z,49.61
2022-07-26T11:42:29.537Z,50.04
2022-07-26T11:44:56.892Z,50.16
2022-07-26T11:47:26.629Z,50.57
2022-07-26T11:52:42.972Z,48.56
2022-07-26T11:55:10.384Z,48.41
2022-07-26T11:57:37.660Z,49.46
2022-07-26T12:00:08.739Z,50.06
2022-07-26T12:02:39.401Z,49.13
2022-07-26T12:05:23.589Z,48.46
2022-07-26T12:08:04.203Z,49.68
2022-07-26T12:10:32.385Z,50.79
2022-07-26T12:13:19.265Z,51.92
2022-07-26T12:15:52.877Z,52.83
2022-07-26T12:18:38.097Z,51.19
2022-07-26T12:21:09.351Z,51.62
2022-07-26T12:23:49.332Z,52.98
2022-07-26T12:26:27.647Z,53.09
2022-07-26T12:28:56.204Z,52.28
2022-07-26T12:31:32.386Z,48.04
2022-07-26T12:34:00.157Z,48.89
2022-07-26T12:36:29.822Z,49.35
2022-07-26T12:39:01.384Z,51.18
2022-07-26T12:41:37.949Z,52.02
2022-07-26T12:44:06.997Z,52.30
2022-07-26T12:46:35.780Z,51.92
2022-07-26T12:49:04.713Z,50.64
2022-07-26T12:51:35.324Z,50.82
2022-07-26T12:54:03.787Z,51.57
2022-07-26T12:56:31.028Z,51.99
2022-07-26T12:59:01.777Z,51.86
2022-07-26T13:01:30.805Z,52.70
2022-07-26T13:03:58.417Z,52.38
2022-07-26T13:06:28.018Z,52.04
2022-07-26T13:08:56.569Z,52.45
2022-07-26T13:11:24.174Z,53.62
2022-07-26T13:13:51.579Z,53.77
2022-07-26T13:16:18.927Z,53.71
2022-07-26T13:18:46.783Z,54.11
2022-07-26T13:21:14.429Z,53.53
2022-07-26T13:23:41.777Z,53.84
2022-07-26T13:26:10.226Z,54.69
2022-07-26T13:28:37.894Z,55.12
2022-07-26T13:31:06.953Z,53.73
2022-07-26T13:33:34.490Z,53.85
2022-07-26T13:36:01.881Z,54.39
2022-07-26T13:38:33.467Z,54.40
2022-07-26T13:41:02.387Z,53.79
2022-07-26T13:43:33.219Z,54.19
2022-07-26T13:46:02.234Z,54.82
2022-07-26T13:48:29.977Z,54.95
2022-07-26T13:50:58.676Z,55.10
2022-07-26T13:53:26.743Z,55.31
2022-07-26T13:55:53.967Z,55.22
2022-07-26T13:58:21.744Z,54.84
2022-07-26T14:00:49.376Z,55.46
2022-07-26T14:03:16.988Z,55.15
2022-07-26T14:05:44.322Z,54.83
2022-07-26T14:08:11.638Z,54.98
2022-07-26T14:10:40.164Z,55.32
2022-07-26T14:13:08.467Z,55.65
2022-07-26T14:15:36.014Z,55.49
2022-07-26T14:18:04.034Z,55.84
2022-07-26T14:20:31.521Z,54.86
2022-07-26T14:22:59.275Z,55.37
2022-07-26T14:25:27.871Z,55.52
2022-07-26T14:27:56.096Z,55.29
2022-07-26T14:30:23.970Z,54.36
2022-07-26T14:32:51.476Z,54.02
2022-07-26T14:35:18.774Z,54.26
2022-07-26T14:37:46.385Z,53.67
2022-07-26T14:40:16.285Z,53.42
2022-07-26T14:42:45.122Z,52.52
2022-07-26T14:45:13.642Z,53.13
2022-07-26T14:47:41.252Z,53.45
2022-07-26T14:50:09.904Z,52.98
2022-07-26T14:52:42.453Z,53.15
2022-07-26T14:55:10.403Z,53.78
2022-07-26T14:57:39.427Z,51.31
2022-07-26T15:00:10.560Z,51.67
2022-07-26T15:02:43.110Z,52.41
2022-07-26T15:05:11.554Z,52.90
2022-07-26T15:07:39.350Z,53.05
2022-07-26T15:10:12.023Z,52.77
2022-07-26T15:12:39.731Z,53.13
2022-07-26T15:15:08.512Z,53.29
2022-07-26T15:17:36.387Z,53.59
2022-07-26T15:20:05.346Z,54.05
2022-07-26T15:22:32.661Z,54.46
2022-07-26T15:24:59.924Z,54.38
2022-07-26T15:27:27.202Z,54.66
2022-07-26T15:29:58.291Z,54.34
2022-07-26T15:32:30.130Z,54.02
2022-07-26T15:34:57.342Z,53.71
2022-07-26T15:37:24.900Z,53.37
2022-07-26T15:39:52.293Z,52.68
2022-07-26T15:42:21.533Z,52.36
2022-07-26T15:44:50.804Z,52.01
2022-07-26T15:47:43.597Z,51.41
2022-07-26T15:50:10.964Z,50.62
2022-07-26T15:52:40.473Z,50.39
2022-07-26T15:55:09.959Z,50.31
2022-07-26T15:57:37.313Z,49.99
2022-07-26T16:00:11.494Z,49.89
2022-07-26T16:02:39.907Z,49.69
2022-07-26T16:05:07.590Z,49.20
2022-07-26T16:07:34.999Z,47.84
2022-07-26T16:10:02.280Z,44.69
2022-07-26T16:12:30.144Z,43.54
2022-07-26T16:14:57.492Z,43.42
2022-07-26T16:17:25.334Z,42.58
2022-07-26T16:19:53.618Z,41.93
2022-07-26T16:22:20.997Z,41.64
2022-07-26T16:24:48.250Z,41.35
2022-07-26T16:27:15.583Z,41.43
2022-07-26T16:29:43.030Z,41.19
2022-07-26T16:32:11.739Z,41.35
2022-07-26T16:34:39.045Z,41.23
2022-07-26T16:37:06.380Z,40.72
2022-07-26T16:39:33.679Z,40.20
2022-07-26T16:42:06.797Z,40.11
2022-07-26T16:44:36.143Z,39.51
2022-07-26T16:47:04.641Z,39.41
2022-07-26T16:49:32.224Z,39.46
2022-07-26T16:51:59.828Z,39.25
2022-07-26T16:54:27.398Z,38.80
2022-07-26T16:56:55.149Z,38.41
2022-07-26T16:59:23.468Z,37.88
2022-07-26T17:01:50.744Z,37.56
2022-07-26T17:04:18.384Z,37.12
2022-07-26T17:07:01.694Z,36.62
2022-07-26T17:09:35.907Z,35.94
2022-07-26T17:12:06.612Z,35.40
2022-07-26T17:14:34.130Z,34.80
2022-07-26T17:17:01.322Z,34.34
2022-07-26T17:19:28.665Z,33.92
2022-07-26T17:21:56.430Z,33.37
2022-07-26T17:24:23.938Z,32.85
2022-07-26T17:26:51.221Z,32.68
2022-07-26T17:29:18.467Z,32.56
2022-07-26T17:31:45.736Z,32.41
2022-07-26T17:34:12.951Z,32.26
2022-07-26T17:36:40.191Z,32.13
2022-07-26T17:39:14.981Z,31.95
2022-07-26T17:41:49.031Z,31.80
2022-07-26T17:44:16.321Z,31.51
2022-07-26T17:46:43.745Z,31.25
2022-07-26T17:49:12.194Z,30.87
2022-07-26T17:51:41.463Z,30.62
2022-07-26T17:54:09.396Z,30.31
2022-07-26T17:56:36.646Z,30.27
2022-07-26T17:59:03.982Z,30.03
2022-07-26T18:01:31.363Z,29.45
2022-07-26T18:03:58.755Z,29.15
2022-07-26T18:06:26.173Z,29.04
2022-07-26T18:08:53.507Z,28.85
2022-07-26T18:11:21.032Z,28.68
2022-07-26T18:13:48.308Z,28.59
2022-07-26T18:16:16.669Z,28.46
2022-07-26T18:18:43.928Z,28.31
2022-07-26T18:21:11.367Z,28.20
2022-07-26T18:23:54.559Z,28.19
2022-07-26T18:26:26.656Z,28.09
2022-07-26T18:28:55.121Z,28.06
2022-07-26T18:31:22.466Z,27.99
2022-07-26T18:33:49.815Z,27.92
2022-07-26T18:36:17.392Z,27.92
2022-07-26T18:38:45.214Z,27.91
2022-07-26T18:41:13.769Z,28.14
2022-07-26T18:43:41.552Z,28.00
2022-07-26T18:46:08.908Z,27.98
2022-07-26T18:48:37.179Z,27.98
2022-07-26T18:51:10.460Z,27.90
2022-07-26T18:53:37.915Z,27.88
2022-07-26T18:56:05.472Z,27.74
2022-07-26T18:58:32.996Z,27.54
2022-07-26T19:01:00.234Z,27.70
2022-07-26T19:03:28.972Z,27.44
2022-07-26T19:05:56.436Z,27.15
2022-07-26T19:08:23.729Z,26.94
2022-07-26T19:10:51.007Z,26.80
2022-07-26T19:13:20.359Z,26.66
2022-07-26T19:15:47.615Z,26.57
2022-07-26T19:18:16.359Z,26.54
2022-07-26T19:20:44.652Z,26.44
2022-07-26T19:23:12.219Z,26.34
2022-07-26T19:25:40.636Z,26.37
2022-07-26T19:28:09.223Z,26.36
2022-07-26T19:30:37.042Z,26.35
2022-07-26T19:33:04.773Z,26.34
2022-07-26T19:35:32.148Z,26.29
2022-07-26T19:37:59.897Z,26.24
2022-07-26T19:40:27.144Z,26.11
2022-07-26T19:42:54.464Z,26.10
2022-07-26T19:45:21.931Z,25.95
2022-07-26T19:47:49.222Z,25.92
2022-07-26T19:50:16.529Z,25.89
2022-07-26T19:52:43.863Z,25.80
2022-07-26T19:55:11.111Z,25.94
2022-07-26T19:57:38.395Z,25.82
2022-07-26T20:00:07.710Z,26.02
2022-07-26T20:02:41.344Z,25.92
2022-07-26T20:05:13.256Z,25.96
2022-07-26T20:07:40.944Z,25.78
2022-07-26T20:10:09.263Z,25.68
2022-07-26T20:12:38.903Z,25.68
2022-07-26T20:15:08.334Z,25.71
2022-07-26T20:17:37.529Z,25.55
2022-07-26T20:20:07.864Z,25.56
2022-07-26T20:22:35.161Z,25.50
2022-07-26T20:25:02.461Z,25.46
2022-07-26T20:27:30.781Z,25.38
2022-07-26T20:30:01.130Z,25.33
2022-07-26T20:32:28.742Z,25.30
2022-07-26T20:34:56.102Z,25.37
2022-07-26T20:37:23.506Z,25.35
2022-07-26T20:39:50.932Z,25.19
2022-07-26T20:42:21.859Z,25.09
2022-07-26T20:44:49.598Z,25.05
2022-07-26T20:47:16.824Z,25.03
2022-07-26T20:49:44.051Z,24.91
2022-07-26T20:52:11.445Z,24.81
2022-07-26T20:54:38.680Z,24.72
2022-07-26T20:57:06.130Z,24.70
2022-07-26T20:59:35.043Z,24.72
2022-07-26T21:02:02.420Z,24.72
2022-07-26T21:04:30.223Z,24.77
2022-07-26T21:06:57.486Z,24.68
2022-07-26T21:09:29.900Z,24.64
2022-07-26T21:11:57.476Z,24.63
2022-07-26T21:14:24.785Z,24.57
2022-07-26T21:16:52.065Z,24.50
2022-07-26T21:19:19.281Z,24.40
2022-07-26T21:21:46.840Z,24.33
2022-07-26T21:24:14.114Z,24.25
2022-07-26T21:26:41.477Z,24.32
2022-07-26T21:29:09.125Z,24.27
2022-07-26T21:31:37.048Z,24.24
2022-07-26T21:34:04.757Z,24.13
2022-07-26T21:36:33.029Z,24.08
2022-07-26T21:39:00.295Z,24.01
2022-07-26T21:41:27.596Z,23.85
2022-07-26T21:43:54.932Z,23.86
2022-07-26T21:46:22.166Z,23.77
2022-07-26T21:48:49.579Z,23.79
2022-07-26T21:51:17.321Z,23.73
2022-07-26T21:53:44.545Z,23.69
2022-07-26T21:56:11.945Z,23.71
2022-07-26T21:58:39.236Z,23.65
2022-07-26T22:01:11.039Z,23.46
2022-07-26T22:03:40.308Z,23.37
2022-07-26T22:06:08.291Z,23.28
2022-07-26T22:08:35.707Z,23.33
2022-07-26T22:11:04.255Z,23.43
2022-07-26T22:13:31.617Z,23.42
2022-07-26T22:15:59.099Z,23.44
2022-07-26T22:18:26.715Z,23.46
2022-07-26T22:20:54.369Z,23.54
2022-07-26T22:23:23.183Z,23.87
2022-07-26T22:25:50.443Z,23.96
2022-07-26T22:28:18.272Z,24.10
2022-07-26T22:30:46.691Z,23.72
2022-07-26T22:33:13.934Z,23.63
2022-07-26T22:35:41.284Z,23.26
2022-07-26T22:38:11.572Z,23.08
2022-07-26T22:40:40.641Z,22.84
2022-07-26T22:43:09.027Z,22.60
2022-07-26T22:45:37.320Z,22.53
2022-07-26T22:48:05.852Z,22.36
2022-07-26T22:50:33.746Z,22.24
2022-07-26T22:53:01.896Z,22.50
2022-07-26T22:55:30.036Z,22.47
2022-07-26T22:57:57.432Z,22.42
2022-07-26T23:00:24.756Z,22.24
2022-07-26T23:02:55.227Z,22.34
2022-07-26T23:05:25.568Z,22.22
2022-07-26T23:08:14.089Z,22.05
2022-07-26T23:10:52.525Z,21.98
2022-07-26T23:13:19.840Z,21.96
2022-07-26T23:15:51.538Z,21.89
2022-07-26T23:18:20.840Z,21.64
2022-07-26T23:20:48.368Z,21.52
2022-07-26T23:23:15.559Z,21.50
2022-07-26T23:25:42.804Z,21.58
2022-07-26T23:28:09.984Z,21.68
2022-07-26T23:30:57.213Z,21.58
2022-07-26T23:33:53.454Z,21.51
2022-07-26T23:36:15.870Z,21.41
2022-07-26T23:38:43.281Z,21.55
2022-07-26T23:41:10.501Z,21.51
2022-07-26T23:43:37.773Z,21.64
2022-07-26T23:46:05.064Z,21.76
2022-07-26T23:48:32.357Z,21.72
2022-07-26T23:50:59.662Z,21.59
2022-07-26T23:53:27.318Z,21.59
2022-07-26T23:55:54.964Z,21.66
2022-07-26T23:58:22.518Z,21.74
